sensor_id;sensor_type;location;lat;lon;timestamp;pressure;altitude;pressure_sealevel;temperature;humidity
25944;BME280;13742;49.306;8.636;2023-03-03T00:00:20;100815.15;;;4.74;69.29
25944;BME280;13742;49.306;8.636;2023-03-03T00:01:20;100818.44;;;4.73;69.03
25944;BME280;13742;49.306;8.636;2023-03-03T00:02:20;100820.02;;;4.74;68.83
25944;BME280;13742;49.306;8.636;2023-03-03T00:03:21;100817.14;;;4.75;68.84
25944;BME280;13742;49.306;8.636;2023-03-03T00:04:20;100823.55;;;4.76;68.78
25944;BME280;13742;49.306;8.636;2023-03-03T00:05:20;100821.39;;;4.78;69.04
25944;BME280;13742;49.306;8.636;2023-03-03T00:06:20;100819.67;;;4.80;69.17
25944;BME280;13742;49.306;8.636;2023-03-03T00:07:22;100822.19;;;4.82;69.13
25944;BME280;13742;49.306;8.636;2023-03-03T00:08:20;100824.19;;;4.83;69.36
25944;BME280;13742;49.306;8.636;2023-03-03T00:09:20;100825.30;;;4.82;68.64
25944;BME280;13742;49.306;8.636;2023-03-03T00:10:20;100824.03;;;4.82;68.63
25944;BME280;13742;49.306;8.636;2023-03-03T00:11:20;100822.56;;;4.82;68.30
25944;BME280;13742;49.306;8.636;2023-03-03T00:12:22;100820.72;;;4.82;68.47
25944;BME280;13742;49.306;8.636;2023-03-03T00:13:21;100822.93;;;4.82;68.03
25944;BME280;13742;49.306;8.636;2023-03-03T00:14:24;100825.58;;;4.83;68.30
25944;BME280;13742;49.306;8.636;2023-03-03T00:15:21;100821.86;;;4.82;67.98
25944;BME280;13742;49.306;8.636;2023-03-03T00:16:24;100823.34;;;4.82;67.88
25944;BME280;13742;49.306;8.636;2023-03-03T00:17:24;100821.41;;;4.82;68.04
25944;BME280;13742;49.306;8.636;2023-03-03T00:19:20;100815.48;;;4.85;68.53
25944;BME280;13742;49.306;8.636;2023-03-03T00:24:34;100818.59;;;4.79;68.24
25944;BME280;13742;49.306;8.636;2023-03-03T00:25:24;100817.70;;;4.79;68.45
25944;BME280;13742;49.306;8.636;2023-03-03T00:26:21;100819.01;;;4.79;68.51
25944;BME280;13742;49.306;8.636;2023-03-03T00:27:24;100818.42;;;4.77;68.54
25944;BME280;13742;49.306;8.636;2023-03-03T00:28:40;100811.20;;;4.76;68.24
25944;BME280;13742;49.306;8.636;2023-03-03T00:30:23;100818.20;;;4.72;68.70
25944;BME280;13742;49.306;8.636;2023-03-03T00:31:21;100823.02;;;4.70;68.24
25944;BME280;13742;49.306;8.636;2023-03-03T00:32:24;100822.98;;;4.70;68.79
25944;BME280;13742;49.306;8.636;2023-03-03T00:35:24;100830.42;;;4.70;68.85
25944;BME280;13742;49.306;8.636;2023-03-03T00:36:21;100830.38;;;4.70;69.16
25944;BME280;13742;49.306;8.636;2023-03-03T00:38:20;100832.69;;;4.68;69.63
25944;BME280;13742;49.306;8.636;2023-03-03T00:41:21;100831.69;;;4.67;69.02
25944;BME280;13742;49.306;8.636;2023-03-03T00:42:20;100834.98;;;4.68;69.54
25944;BME280;13742;49.306;8.636;2023-03-03T00:43:24;100833.64;;;4.67;69.43
25944;BME280;13742;49.306;8.636;2023-03-03T00:44:30;100829.23;;;4.67;69.37
25944;BME280;13742;49.306;8.636;2023-03-03T00:45:27;100832.67;;;4.67;69.08
25944;BME280;13742;49.306;8.636;2023-03-03T00:46:20;100832.85;;;4.68;69.25
25944;BME280;13742;49.306;8.636;2023-03-03T00:47:27;100829.73;;;4.67;69.19
25944;BME280;13742;49.306;8.636;2023-03-03T00:49:23;100832.34;;;4.67;69.71
25944;BME280;13742;49.306;8.636;2023-03-03T00:50:25;100832.13;;;4.67;69.69
25944;BME280;13742;49.306;8.636;2023-03-03T00:51:25;100830.84;;;4.66;69.65
25944;BME280;13742;49.306;8.636;2023-03-03T00:52:20;100830.59;;;4.63;69.61
25944;BME280;13742;49.306;8.636;2023-03-03T00:53:21;100830.08;;;4.58;70.09
25944;BME280;13742;49.306;8.636;2023-03-03T00:54:20;100835.24;;;4.58;70.09
25944;BME280;13742;49.306;8.636;2023-03-03T00:55:20;100832.53;;;4.55;70.07
25944;BME280;13742;49.306;8.636;2023-03-03T00:56:20;100828.61;;;4.52;70.07
25944;BME280;13742;49.306;8.636;2023-03-03T00:57:20;100832.03;;;4.50;70.24
25944;BME280;13742;49.306;8.636;2023-03-03T00:58:21;100830.88;;;4.48;70.55
25944;BME280;13742;49.306;8.636;2023-03-03T00:59:20;100831.98;;;4.44;70.39
25944;BME280;13742;49.306;8.636;2023-03-03T01:00:20;100829.70;;;4.40;70.61
25944;BME280;13742;49.306;8.636;2023-03-03T01:01:20;100832.38;;;4.35;70.79
25944;BME280;13742;49.306;8.636;2023-03-03T01:02:20;100833.84;;;4.32;70.88
25944;BME280;13742;49.306;8.636;2023-03-03T01:03:21;100837.11;;;4.30;70.76
25944;BME280;13742;49.306;8.636;2023-03-03T01:04:20;100832.58;;;4.30;70.66
25944;BME280;13742;49.306;8.636;2023-03-03T01:05:20;100834.49;;;4.30;70.33
25944;BME280;13742;49.306;8.636;2023-03-03T01:06:20;100833.08;;;4.29;70.18
25944;BME280;13742;49.306;8.636;2023-03-03T01:07:20;100835.24;;;4.29;70.38
25944;BME280;13742;49.306;8.636;2023-03-03T01:08:21;100834.31;;;4.28;70.57
25944;BME280;13742;49.306;8.636;2023-03-03T01:09:20;100835.52;;;4.26;70.64
25944;BME280;13742;49.306;8.636;2023-03-03T01:10:20;100836.12;;;4.24;70.64
25944;BME280;13742;49.306;8.636;2023-03-03T01:11:21;100836.39;;;4.22;70.62
25944;BME280;13742;49.306;8.636;2023-03-03T01:12:20;100837.75;;;4.21;70.37
25944;BME280;13742;49.306;8.636;2023-03-03T01:13:21;100835.78;;;4.18;70.70
25944;BME280;13742;49.306;8.636;2023-03-03T01:14:20;100831.75;;;4.17;70.61
25944;BME280;13742;49.306;8.636;2023-03-03T01:15:20;100830.77;;;4.16;70.42
25944;BME280;13742;49.306;8.636;2023-03-03T01:16:20;100828.98;;;4.15;69.96
25944;BME280;13742;49.306;8.636;2023-03-03T01:17:20;100824.34;;;4.14;69.76
25944;BME280;13742;49.306;8.636;2023-03-03T01:18:20;100826.03;;;4.13;69.58
25944;BME280;13742;49.306;8.636;2023-03-03T01:19:20;100820.82;;;4.11;69.37
25944;BME280;13742;49.306;8.636;2023-03-03T01:20:20;100823.31;;;4.11;69.33
25944;BME280;13742;49.306;8.636;2023-03-03T01:21:20;100823.42;;;4.09;69.20
25944;BME280;13742;49.306;8.636;2023-03-03T01:22:20;100829.04;;;4.11;69.71
25944;BME280;13742;49.306;8.636;2023-03-03T01:23:20;100828.55;;;4.10;70.16
25944;BME280;13742;49.306;8.636;2023-03-03T01:24:20;100827.66;;;4.10;70.25
25944;BME280;13742;49.306;8.636;2023-03-03T01:25:20;100828.39;;;4.07;70.39
25944;BME280;13742;49.306;8.636;2023-03-03T01:26:20;100828.74;;;4.05;70.30
25944;BME280;13742;49.306;8.636;2023-03-03T01:27:20;100828.59;;;4.02;70.61
25944;BME280;13742;49.306;8.636;2023-03-03T01:28:20;100830.75;;;4.01;70.95
25944;BME280;13742;49.306;8.636;2023-03-03T01:29:20;100830.55;;;3.99;71.15
25944;BME280;13742;49.306;8.636;2023-03-03T01:30:20;100829.88;;;3.99;71.31
25944;BME280;13742;49.306;8.636;2023-03-03T01:31:20;100828.24;;;3.98;71.13
25944;BME280;13742;49.306;8.636;2023-03-03T01:32:20;100828.48;;;3.95;70.70
25944;BME280;13742;49.306;8.636;2023-03-03T01:33:20;100828.02;;;3.89;71.38
25944;BME280;13742;49.306;8.636;2023-03-03T01:34:20;100827.95;;;3.83;71.78
25944;BME280;13742;49.306;8.636;2023-03-03T01:35:20;100830.75;;;3.77;71.78
25944;BME280;13742;49.306;8.636;2023-03-03T01:36:23;100831.81;;;3.73;71.89
25944;BME280;13742;49.306;8.636;2023-03-03T01:37:20;100832.84;;;3.72;71.85
25944;BME280;13742;49.306;8.636;2023-03-03T01:38:20;100836.84;;;3.69;71.84
25944;BME280;13742;49.306;8.636;2023-03-03T01:39:20;100838.68;;;3.68;71.24
25944;BME280;13742;49.306;8.636;2023-03-03T01:40:24;100836.57;;;3.66;71.17
25944;BME280;13742;49.306;8.636;2023-03-03T01:41:20;100836.09;;;3.66;70.84
25944;BME280;13742;49.306;8.636;2023-03-03T01:42:20;100835.11;;;3.65;70.68
25944;BME280;13742;49.306;8.636;2023-03-03T01:43:20;100829.56;;;3.65;70.40
25944;BME280;13742;49.306;8.636;2023-03-03T01:44:20;100830.97;;;3.67;71.03
25944;BME280;13742;49.306;8.636;2023-03-03T01:47:20;100833.89;;;3.60;71.94
25944;BME280;13742;49.306;8.636;2023-03-03T01:49:41;100832.01;;;3.43;72.78
25944;BME280;13742;49.306;8.636;2023-03-03T01:52:29;100831.45;;;3.45;71.53
25944;BME280;13742;49.306;8.636;2023-03-03T01:54:24;100829.04;;;3.47;71.48
25944;BME280;13742;49.306;8.636;2023-03-03T01:55:24;100831.34;;;3.48;71.47
25944;BME280;13742;49.306;8.636;2023-03-03T01:56:20;100831.27;;;3.48;71.56
25944;BME280;13742;49.306;8.636;2023-03-03T01:57:22;100831.03;;;3.47;71.59
25944;BME280;13742;49.306;8.636;2023-03-03T01:59:21;100832.84;;;3.46;71.59
25944;BME280;13742;49.306;8.636;2023-03-03T02:00:20;100828.81;;;3.45;71.96
25944;BME280;13742;49.306;8.636;2023-03-03T02:01:21;100827.84;;;3.44;71.46
25944;BME280;13742;49.306;8.636;2023-03-03T02:02:20;100827.60;;;3.43;71.83
25944;BME280;13742;49.306;8.636;2023-03-03T02:03:20;100832.34;;;3.43;72.14
25944;BME280;13742;49.306;8.636;2023-03-03T02:04:20;100838.63;;;3.00;73.53
25944;BME280;13742;49.306;8.636;2023-03-03T02:05:20;100840.56;;;2.54;75.16
25944;BME280;13742;49.306;8.636;2023-03-03T02:06:28;100838.36;;;2.45;75.51
25944;BME280;13742;49.306;8.636;2023-03-03T02:07:20;100839.25;;;2.47;75.83
25944;BME280;13742;49.306;8.636;2023-03-03T02:08:21;100838.58;;;2.59;75.29
25944;BME280;13742;49.306;8.636;2023-03-03T02:10:20;100839.09;;;2.69;74.01
25944;BME280;13742;49.306;8.636;2023-03-03T02:11:20;100840.02;;;2.70;73.70
25944;BME280;13742;49.306;8.636;2023-03-03T02:12:21;100838.41;;;2.74;73.89
25944;BME280;13742;49.306;8.636;2023-03-03T02:13:20;100839.06;;;2.75;73.78
25944;BME280;13742;49.306;8.636;2023-03-03T02:14:20;100837.91;;;2.77;73.37
25944;BME280;13742;49.306;8.636;2023-03-03T02:15:27;100838.27;;;2.77;73.03
25944;BME280;13742;49.306;8.636;2023-03-03T02:16:20;100834.84;;;2.79;73.25
25944;BME280;13742;49.306;8.636;2023-03-03T02:17:20;100836.59;;;2.79;72.67
25944;BME280;13742;49.306;8.636;2023-03-03T02:18:20;100836.42;;;2.80;72.63
25944;BME280;13742;49.306;8.636;2023-03-03T02:19:26;100833.00;;;2.79;72.26
25944;BME280;13742;49.306;8.636;2023-03-03T02:21:20;100832.42;;;2.81;73.07
25944;BME280;13742;49.306;8.636;2023-03-03T02:22:21;100839.41;;;2.79;73.27
25944;BME280;13742;49.306;8.636;2023-03-03T02:25:21;100838.17;;;2.79;72.88
25944;BME280;13742;49.306;8.636;2023-03-03T02:26:21;100840.11;;;2.83;72.49
25944;BME280;13742;49.306;8.636;2023-03-03T02:27:20;100831.75;;;2.84;73.65
25944;BME280;13742;49.306;8.636;2023-03-03T02:28:20;100835.16;;;2.86;73.67
25944;BME280;13742;49.306;8.636;2023-03-03T02:29:20;100832.88;;;2.86;73.44
25944;BME280;13742;49.306;8.636;2023-03-03T02:30:20;100829.55;;;2.84;72.66
25944;BME280;13742;49.306;8.636;2023-03-03T02:31:21;100827.39;;;2.85;72.66
25944;BME280;13742;49.306;8.636;2023-03-03T02:32:20;100829.20;;;2.88;72.94
25944;BME280;13742;49.306;8.636;2023-03-03T02:33:20;100829.81;;;2.87;72.55
25944;BME280;13742;49.306;8.636;2023-03-03T02:34:20;100825.50;;;2.85;72.32
25944;BME280;13742;49.306;8.636;2023-03-03T02:36:21;100828.39;;;2.88;72.59
25944;BME280;13742;49.306;8.636;2023-03-03T02:37:20;100831.30;;;2.90;72.98
25944;BME280;13742;49.306;8.636;2023-03-03T02:39:25;100829.17;;;2.91;72.86
25944;BME280;13742;49.306;8.636;2023-03-03T02:40:20;100828.31;;;2.91;72.98
25944;BME280;13742;49.306;8.636;2023-03-03T02:42:20;100832.51;;;2.92;72.65
25944;BME280;13742;49.306;8.636;2023-03-03T02:43:20;100832.56;;;2.91;72.91
25944;BME280;13742;49.306;8.636;2023-03-03T02:44:21;100833.93;;;2.88;73.31
25944;BME280;13742;49.306;8.636;2023-03-03T02:45:20;100834.30;;;2.87;73.34
25944;BME280;13742;49.306;8.636;2023-03-03T02:46:20;100835.08;;;2.86;72.88
25944;BME280;13742;49.306;8.636;2023-03-03T02:47:20;100831.56;;;2.82;72.43
25944;BME280;13742;49.306;8.636;2023-03-03T02:48:20;100832.00;;;2.82;72.25
25944;BME280;13742;49.306;8.636;2023-03-03T02:49:21;100825.38;;;2.81;72.13
25944;BME280;13742;49.306;8.636;2023-03-03T02:50:20;100829.45;;;2.81;72.04
25944;BME280;13742;49.306;8.636;2023-03-03T02:51:20;100828.22;;;2.81;72.12
25944;BME280;13742;49.306;8.636;2023-03-03T02:52:20;100824.88;;;2.82;72.04
25944;BME280;13742;49.306;8.636;2023-03-03T02:53:20;100828.53;;;2.83;71.83
25944;BME280;13742;49.306;8.636;2023-03-03T02:54:20;100825.81;;;2.82;71.71
25944;BME280;13742;49.306;8.636;2023-03-03T02:55:20;100821.77;;;2.83;71.88
25944;BME280;13742;49.306;8.636;2023-03-03T02:56:20;100820.91;;;2.83;72.31
25944;BME280;13742;49.306;8.636;2023-03-03T02:57:20;100825.06;;;2.85;72.53
25944;BME280;13742;49.306;8.636;2023-03-03T02:58:20;100826.04;;;2.84;72.21
25944;BME280;13742;49.306;8.636;2023-03-03T02:59:20;100828.08;;;2.84;72.72
25944;BME280;13742;49.306;8.636;2023-03-03T03:00:20;100822.94;;;2.78;72.82
25944;BME280;13742;49.306;8.636;2023-03-03T03:01:20;100829.56;;;2.75;72.99
25944;BME280;13742;49.306;8.636;2023-03-03T03:02:20;100832.78;;;2.67;73.37
25944;BME280;13742;49.306;8.636;2023-03-03T03:03:20;100831.61;;;2.67;73.79
25944;BME280;13742;49.306;8.636;2023-03-03T03:04:21;100828.96;;;2.58;73.74
25944;BME280;13742;49.306;8.636;2023-03-03T03:05:20;100833.88;;;2.55;73.97
25944;BME280;13742;49.306;8.636;2023-03-03T03:06:20;100831.98;;;2.50;74.18
25944;BME280;13742;49.306;8.636;2023-03-03T03:07:20;100833.80;;;2.52;74.12
25944;BME280;13742;49.306;8.636;2023-03-03T03:08:20;100835.73;;;2.49;74.21
25944;BME280;13742;49.306;8.636;2023-03-03T03:09:20;100835.41;;;2.49;73.82
25944;BME280;13742;49.306;8.636;2023-03-03T03:10:20;100832.47;;;2.50;73.66
25944;BME280;13742;49.306;8.636;2023-03-03T03:11:20;100832.02;;;2.51;73.44
25944;BME280;13742;49.306;8.636;2023-03-03T03:12:20;100829.80;;;2.48;72.89
25944;BME280;13742;49.306;8.636;2023-03-03T03:13:20;100828.61;;;2.48;72.72
25944;BME280;13742;49.306;8.636;2023-03-03T03:14:20;100826.89;;;2.49;73.12
25944;BME280;13742;49.306;8.636;2023-03-03T03:15:20;100827.05;;;2.50;73.08
25944;BME280;13742;49.306;8.636;2023-03-03T03:16:20;100825.81;;;2.52;73.18
25944;BME280;13742;49.306;8.636;2023-03-03T03:17:20;100826.34;;;2.52;73.09
25944;BME280;13742;49.306;8.636;2023-03-03T03:18:20;100824.64;;;2.52;73.20
25944;BME280;13742;49.306;8.636;2023-03-03T03:19:20;100824.80;;;2.53;73.17
25944;BME280;13742;49.306;8.636;2023-03-03T03:20:20;100826.67;;;2.52;72.99
25944;BME280;13742;49.306;8.636;2023-03-03T03:21:20;100825.19;;;2.48;73.23
25944;BME280;13742;49.306;8.636;2023-03-03T03:22:20;100827.03;;;2.47;73.34
25944;BME280;13742;49.306;8.636;2023-03-03T03:23:20;100826.05;;;2.46;73.26
25944;BME280;13742;49.306;8.636;2023-03-03T03:24:20;100826.05;;;2.46;73.17
25944;BME280;13742;49.306;8.636;2023-03-03T03:25:20;100826.26;;;2.46;73.23
25944;BME280;13742;49.306;8.636;2023-03-03T03:26:20;100827.68;;;2.46;73.13
25944;BME280;13742;49.306;8.636;2023-03-03T03:27:20;100823.78;;;2.43;72.67
25944;BME280;13742;49.306;8.636;2023-03-03T03:28:20;100828.72;;;2.42;72.41
25944;BME280;13742;49.306;8.636;2023-03-03T03:29:20;100833.33;;;2.41;72.21
25944;BME280;13742;49.306;8.636;2023-03-03T03:30:20;100833.08;;;2.43;72.55
25944;BME280;13742;49.306;8.636;2023-03-03T03:31:20;100836.83;;;2.42;72.37
25944;BME280;13742;49.306;8.636;2023-03-03T03:32:20;100838.42;;;2.40;72.74
25944;BME280;13742;49.306;8.636;2023-03-03T03:33:20;100844.08;;;2.41;72.92
25944;BME280;13742;49.306;8.636;2023-03-03T03:34:20;100846.73;;;2.39;72.86
25944;BME280;13742;49.306;8.636;2023-03-03T03:35:20;100850.37;;;2.38;72.96
25944;BME280;13742;49.306;8.636;2023-03-03T03:36:20;100846.99;;;2.36;72.56
25944;BME280;13742;49.306;8.636;2023-03-03T03:37:20;100847.77;;;2.36;72.59
25944;BME280;13742;49.306;8.636;2023-03-03T03:38:20;100852.90;;;2.36;72.36
25944;BME280;13742;49.306;8.636;2023-03-03T03:39:20;100851.11;;;2.34;72.75
25944;BME280;13742;49.306;8.636;2023-03-03T03:40:20;100850.19;;;2.32;72.32
25944;BME280;13742;49.306;8.636;2023-03-03T03:41:20;100852.88;;;2.31;72.44
25944;BME280;13742;49.306;8.636;2023-03-03T03:42:19;100854.44;;;2.29;72.26
25944;BME280;13742;49.306;8.636;2023-03-03T03:43:20;100849.27;;;2.29;72.40
25944;BME280;13742;49.306;8.636;2023-03-03T03:44:20;100852.59;;;2.30;72.77
25944;BME280;13742;49.306;8.636;2023-03-03T03:45:20;100852.88;;;2.31;72.76
25944;BME280;13742;49.306;8.636;2023-03-03T03:46:19;100849.05;;;2.29;72.62
25944;BME280;13742;49.306;8.636;2023-03-03T03:47:20;100852.73;;;2.29;72.60
25944;BME280;13742;49.306;8.636;2023-03-03T03:48:20;100852.64;;;2.29;72.48
25944;BME280;13742;49.306;8.636;2023-03-03T03:49:20;100852.03;;;2.28;72.42
25944;BME280;13742;49.306;8.636;2023-03-03T03:50:20;100849.72;;;2.26;72.97
25944;BME280;13742;49.306;8.636;2023-03-03T03:51:19;100853.80;;;2.25;72.61
25944;BME280;13742;49.306;8.636;2023-03-03T03:52:19;100856.89;;;2.26;72.60
25944;BME280;13742;49.306;8.636;2023-03-03T03:53:20;100858.64;;;2.28;73.15
25944;BME280;13742;49.306;8.636;2023-03-03T03:54:20;100852.69;;;2.28;74.18
25944;BME280;13742;49.306;8.636;2023-03-03T03:55:21;100855.98;;;2.28;74.50
25944;BME280;13742;49.306;8.636;2023-03-03T03:56:20;100861.48;;;2.28;74.42
25944;BME280;13742;49.306;8.636;2023-03-03T03:57:20;100862.43;;;2.25;74.39
25944;BME280;13742;49.306;8.636;2023-03-03T03:58:20;100862.28;;;2.21;74.38
25944;BME280;13742;49.306;8.636;2023-03-03T03:59:20;100859.41;;;2.17;74.94
25944;BME280;13742;49.306;8.636;2023-03-03T04:00:20;100857.61;;;2.17;74.60
25944;BME280;13742;49.306;8.636;2023-03-03T04:01:19;100855.73;;;2.17;74.02
25944;BME280;13742;49.306;8.636;2023-03-03T04:02:20;100858.38;;;2.18;74.05
25944;BME280;13742;49.306;8.636;2023-03-03T04:03:19;100857.97;;;2.18;74.71
25944;BME280;13742;49.306;8.636;2023-03-03T04:04:20;100860.83;;;2.18;74.35
25944;BME280;13742;49.306;8.636;2023-03-03T04:05:20;100858.46;;;2.19;74.92
25944;BME280;13742;49.306;8.636;2023-03-03T04:06:19;100857.07;;;2.21;75.55
25944;BME280;13742;49.306;8.636;2023-03-03T04:07:20;100855.93;;;2.20;75.74
25944;BME280;13742;49.306;8.636;2023-03-03T04:08:19;100856.25;;;2.20;75.88
25944;BME280;13742;49.306;8.636;2023-03-03T04:09:20;100850.52;;;2.19;75.43
25944;BME280;13742;49.306;8.636;2023-03-03T04:10:19;100847.05;;;2.19;75.61
25944;BME280;13742;49.306;8.636;2023-03-03T04:11:19;100845.64;;;2.18;75.34
25944;BME280;13742;49.306;8.636;2023-03-03T04:12:19;100854.25;;;2.10;76.00
25944;BME280;13742;49.306;8.636;2023-03-03T04:13:20;100853.85;;;2.09;75.88
25944;BME280;13742;49.306;8.636;2023-03-03T04:14:19;100856.66;;;2.09;75.63
25944;BME280;13742;49.306;8.636;2023-03-03T04:15:19;100855.77;;;2.08;75.08
25944;BME280;13742;49.306;8.636;2023-03-03T04:16:19;100858.73;;;2.07;74.70
25944;BME280;13742;49.306;8.636;2023-03-03T04:17:20;100856.70;;;2.07;74.52
25944;BME280;13742;49.306;8.636;2023-03-03T04:18:19;100856.73;;;2.08;75.02
25944;BME280;13742;49.306;8.636;2023-03-03T04:19:19;100857.84;;;2.10;75.01
25944;BME280;13742;49.306;8.636;2023-03-03T04:20:19;100855.39;;;2.11;75.54
25944;BME280;13742;49.306;8.636;2023-03-03T04:21:20;100855.41;;;2.01;75.85
25944;BME280;13742;49.306;8.636;2023-03-03T04:22:19;100857.36;;;1.90;76.35
25944;BME280;13742;49.306;8.636;2023-03-03T04:23:20;100862.13;;;1.89;76.53
25944;BME280;13742;49.306;8.636;2023-03-03T04:24:19;100858.26;;;1.86;76.70
25944;BME280;13742;49.306;8.636;2023-03-03T04:25:19;100862.52;;;1.90;76.32
25944;BME280;13742;49.306;8.636;2023-03-03T04:26:19;100861.14;;;1.92;75.93
25944;BME280;13742;49.306;8.636;2023-03-03T04:27:19;100860.32;;;1.92;75.86
25944;BME280;13742;49.306;8.636;2023-03-03T04:28:21;100862.11;;;1.92;75.45
25944;BME280;13742;49.306;8.636;2023-03-03T04:29:19;100861.55;;;1.91;75.85
25944;BME280;13742;49.306;8.636;2023-03-03T04:30:20;100862.60;;;1.91;75.71
25944;BME280;13742;49.306;8.636;2023-03-03T04:31:19;100858.45;;;1.91;75.94
25944;BME280;13742;49.306;8.636;2023-03-03T04:32:19;100859.59;;;1.90;75.88
25944;BME280;13742;49.306;8.636;2023-03-03T04:33:19;100858.55;;;1.85;75.85
25944;BME280;13742;49.306;8.636;2023-03-03T04:34:19;100859.11;;;1.86;75.81
25944;BME280;13742;49.306;8.636;2023-03-03T04:35:20;100855.13;;;1.84;75.02
25944;BME280;13742;49.306;8.636;2023-03-03T04:36:20;100858.22;;;1.82;75.73
25944;BME280;13742;49.306;8.636;2023-03-03T04:37:20;100856.03;;;1.83;76.03
25944;BME280;13742;49.306;8.636;2023-03-03T04:38:19;100857.33;;;1.83;75.62
25944;BME280;13742;49.306;8.636;2023-03-03T04:39:19;100855.38;;;1.83;75.48
25944;BME280;13742;49.306;8.636;2023-03-03T04:40:19;100856.55;;;1.84;75.80
25944;BME280;13742;49.306;8.636;2023-03-03T04:41:19;100857.86;;;1.85;76.13
25944;BME280;13742;49.306;8.636;2023-03-03T04:42:19;100860.66;;;1.84;75.63
25944;BME280;13742;49.306;8.636;2023-03-03T04:43:20;100860.91;;;1.83;75.38
25944;BME280;13742;49.306;8.636;2023-03-03T04:44:19;100858.96;;;1.81;75.55
25944;BME280;13742;49.306;8.636;2023-03-03T04:45:19;100864.94;;;1.81;75.48
25944;BME280;13742;49.306;8.636;2023-03-03T04:46:19;100862.38;;;1.79;75.16
25944;BME280;13742;49.306;8.636;2023-03-03T04:47:19;100865.36;;;1.78;74.77
25944;BME280;13742;49.306;8.636;2023-03-03T04:48:19;100867.67;;;1.76;74.49
25944;BME280;13742;49.306;8.636;2023-03-03T04:49:19;100865.52;;;1.75;74.41
25944;BME280;13742;49.306;8.636;2023-03-03T04:50:19;100867.06;;;1.75;74.68
25944;BME280;13742;49.306;8.636;2023-03-03T04:51:20;100868.16;;;1.75;74.42
25944;BME280;13742;49.306;8.636;2023-03-03T04:52:19;100867.72;;;1.76;74.50
25944;BME280;13742;49.306;8.636;2023-03-03T04:53:19;100869.63;;;1.76;74.66
25944;BME280;13742;49.306;8.636;2023-03-03T04:54:19;100868.98;;;1.76;74.69
25944;BME280;13742;49.306;8.636;2023-03-03T04:55:19;100866.49;;;1.75;74.56
25944;BME280;13742;49.306;8.636;2023-03-03T04:56:19;100870.73;;;1.76;74.93
25944;BME280;13742;49.306;8.636;2023-03-03T04:57:20;100873.38;;;1.74;75.46
25944;BME280;13742;49.306;8.636;2023-03-03T04:58:20;100875.17;;;1.70;75.77
25944;BME280;13742;49.306;8.636;2023-03-03T04:59:19;100878.30;;;1.69;75.68
25944;BME280;13742;49.306;8.636;2023-03-03T05:00:20;100875.21;;;1.69;75.72
25944;BME280;13742;49.306;8.636;2023-03-03T05:01:20;100877.04;;;1.68;75.84
25944;BME280;13742;49.306;8.636;2023-03-03T05:02:19;100881.03;;;1.66;75.99
25944;BME280;13742;49.306;8.636;2023-03-03T05:03:19;100882.83;;;1.63;76.03
25944;BME280;13742;49.306;8.636;2023-03-03T05:04:19;100882.22;;;1.62;75.70
25944;BME280;13742;49.306;8.636;2023-03-03T05:05:19;100881.16;;;1.60;75.85
25944;BME280;13742;49.306;8.636;2023-03-03T05:06:19;100884.17;;;1.60;75.50
25944;BME280;13742;49.306;8.636;2023-03-03T05:07:19;100886.05;;;1.59;75.29
25944;BME280;13742;49.306;8.636;2023-03-03T05:08:19;100887.70;;;1.58;75.32
25944;BME280;13742;49.306;8.636;2023-03-03T05:09:19;100885.84;;;1.55;75.51
25944;BME280;13742;49.306;8.636;2023-03-03T05:10:20;100888.23;;;1.54;75.70
25944;BME280;13742;49.306;8.636;2023-03-03T05:11:20;100884.82;;;1.51;75.71
25944;BME280;13742;49.306;8.636;2023-03-03T05:12:20;100886.33;;;1.50;75.63
25944;BME280;13742;49.306;8.636;2023-03-03T05:13:20;100891.25;;;1.47;76.20
25944;BME280;13742;49.306;8.636;2023-03-03T05:14:20;100888.48;;;1.45;76.27
25944;BME280;13742;49.306;8.636;2023-03-03T05:15:19;100891.00;;;1.43;75.69
25944;BME280;13742;49.306;8.636;2023-03-03T05:16:19;100890.97;;;1.41;75.51
25944;BME280;13742;49.306;8.636;2023-03-03T05:17:19;100891.94;;;1.40;75.25
25944;BME280;13742;49.306;8.636;2023-03-03T05:18:20;100888.19;;;1.39;75.09
25944;BME280;13742;49.306;8.636;2023-03-03T05:19:19;100889.70;;;1.39;75.16
25944;BME280;13742;49.306;8.636;2023-03-03T05:20:19;100887.70;;;1.40;75.39
25944;BME280;13742;49.306;8.636;2023-03-03T05:21:20;100887.75;;;1.39;75.21
25944;BME280;13742;49.306;8.636;2023-03-03T05:22:19;100892.30;;;1.42;75.64
25944;BME280;13742;49.306;8.636;2023-03-03T05:23:20;100892.47;;;1.43;75.37
25944;BME280;13742;49.306;8.636;2023-03-03T05:24:20;100891.86;;;1.42;75.11
25944;BME280;13742;49.306;8.636;2023-03-03T05:25:20;100890.31;;;1.43;75.30
25944;BME280;13742;49.306;8.636;2023-03-03T05:26:20;100891.28;;;1.43;74.84
25944;BME280;13742;49.306;8.636;2023-03-03T05:27:19;100890.03;;;1.44;74.96
25944;BME280;13742;49.306;8.636;2023-03-03T05:28:19;100894.05;;;1.44;74.75
25944;BME280;13742;49.306;8.636;2023-03-03T05:29:19;100897.64;;;1.46;74.84
25944;BME280;13742;49.306;8.636;2023-03-03T05:30:19;100902.80;;;1.45;74.47
25944;BME280;13742;49.306;8.636;2023-03-03T05:31:19;100906.70;;;1.47;74.82
25944;BME280;13742;49.306;8.636;2023-03-03T05:32:19;100911.06;;;1.46;74.40
25944;BME280;13742;49.306;8.636;2023-03-03T05:33:19;100911.02;;;1.45;74.13
25944;BME280;13742;49.306;8.636;2023-03-03T05:34:19;100912.77;;;1.45;74.05
25944;BME280;13742;49.306;8.636;2023-03-03T05:35:19;100915.16;;;1.45;74.06
25944;BME280;13742;49.306;8.636;2023-03-03T05:36:19;100914.44;;;1.44;73.95
25944;BME280;13742;49.306;8.636;2023-03-03T05:37:19;100912.48;;;1.44;74.08
25944;BME280;13742;49.306;8.636;2023-03-03T05:38:20;100915.94;;;1.46;74.85
25944;BME280;13742;49.306;8.636;2023-03-03T05:39:19;100916.19;;;1.46;75.07
25944;BME280;13742;49.306;8.636;2023-03-03T05:40:19;100917.69;;;1.43;74.81
25944;BME280;13742;49.306;8.636;2023-03-03T05:41:19;100918.70;;;1.43;75.54
25944;BME280;13742;49.306;8.636;2023-03-03T05:42:19;100921.19;;;1.42;75.65
25944;BME280;13742;49.306;8.636;2023-03-03T05:43:19;100920.98;;;1.39;75.36